Nome, AK

3:16 PM AKST on December 19, 2014 (GMT -0900)
Nome | Change Station
CLOSE
Current Station
Airport
Location: Nome,
Elevation: 36 ft
Nearby Weather Stations

Elev 36 ft 64.51 °N, 165.45 °W | Updated 23 minutes ago

Mostly Cloudy
Mostly Cloudy
20 °F
Feels Like 12 °F
N
6
Wind Variable Wind from North

Today
High -- | Low -- °F
--% Chance of Precip.
Yesterday
High -- | Low -- °F
Precip. -- in
12:01 PM 3:56 PM
Waning Crescent, 5% visible
Pressure 29.31 in
Visibility 10.0 miles
Clouds Few 11000 ft
Mostly Cloudy 20000 ft
Windchill 12 °F
Dew Point 6 °F
Humidity 55%
Rainfall 0.00 in
Snow Depth Not available.
UV 0 out of 12
Pollen Not available.
Air Quality Not available.
Flu Activity Not available.
METAR PAOM 192353Z 36005KT 10SM FEW110 BKN200 M07/M14 A2931 RMK SLP926 4/011 T10671144 11050 21089 52001 $ VIA AUTODIAL

More Conditions Fewer Conditions

Pressure 29.31 in
Visibility 10.0 miles
Clouds Few 11000 ft
Mostly Cloudy 20000 ft
Windchill 12 °F
Dew Point 6 °F
Humidity 55%
Rainfall 0.00 in
Snow Depth Not available.
UV 0 out of 12
Pollen Not available.
Air Quality Not available.
Flu Activity Not available.
METAR PAOM 192353Z 36005KT 10SM FEW110 BKN200 M07/M14 A2931 RMK SLP926 4/011 T10671144 11050 21089 52001 $ VIA AUTODIAL

More Conditions Fewer Conditions

10-Day Weather Forecast

Almanac

Astronomy

Dec. 19, 2014 Rise Set
Actual Time
Civil Twilight
Nautical Twilight
Astronomical Twilight
Moon
Length of Visible Light
Length of Day
Tomorrow will be .
, % of the Moon is Illuminated

Today's Extremes

State Highs State Lows

Community

WunderPhotos

Upload Photos

1,779,084 photos uploaded!

WunderBlogs® & News

Nearby

Air Quality

  Air Quality AQ Index Pollutant
Not available.

Snow Depth

Station Depth Elevation

Earthquake Activity

City Distance Mag. Time & Date
Minimum magnitude displayed is 2.5.

Coastal Water Temperatures

Place Temperature

Nearby Weather Stations